Wallblake, Anguilla

7:09 AM AST on August 22, 2017 (GMT -0400)
The Valley | | Change Station

Elev 92 ft 18.21 °N, 63.05 °W | Updated 2 seconds ago

Clear
Clear
82.5 °F
Feels Like 88 °F
N
3.6
Wind Variable Wind from NE

Today
High -- | Low -- °F
--% Chance of Precip.
Yesterday
High -- | Low -- °F
Precip. -- in
Pressure 29.98 in
Visibility 6.2 miles
Clouds Few 1900 ft
Heat Index 88 °F
Dew Point 74 °F
Humidity 74%
Rainfall 0.00 in
Snow Depth Not available.
5:55 AM 6:33 PM
New Moon, 1% visible
METAR TNCM 221100Z 07007KT 9999 FEW019TCU 28/26 Q1015 A2998 NOSIG RMK LGT HZ ALQDS TCU SERN QUAD
Pressure 29.98 in
Visibility 6.2 miles
Clouds Few 1900 ft
Heat Index 88 °F
Dew Point 74 °F
Humidity 74%
Rainfall 0.00 in
Snow Depth Not available.
5:55 AM 6:33 PM
New Moon, 1% visible
METAR TNCM 221100Z 07007KT 9999 FEW019TCU 28/26 Q1015 A2998 NOSIG RMK LGT HZ ALQDS TCU SERN QUAD

Get Severe Weather Alerts

Thanks for signing up!

Be on the lookout for a verification email in your inbox.

You'll start receiving the daily forecast at 6 AM.

×

10-Day Weather Forecast

No radar image for this location.
×

Almanac

Astronomy

Aug. 22, 2017 Rise Set
Actual Time
Civil Twilight
Nautical Twilight
Astronomical Twilight
Moon
Length of Visible Light
Length of Day
Tomorrow will be .
, % of the Moon is Illuminated

Today's Extremes

Country Highs Country Lows

Community

WunderPhotos

Category 6

Welcome to Category 6. This is the collective home for Weather Underground's featured writeups by Dr. Jeff Masters (right), Bob Henson (left), Chris Burt, and other regular contributors.

Nearby

Air Quality

  Air Quality AQ Index Pollutant
Not available.

Snow Depth

Station Depth Elevation

Earthquake Activity

City Distance Mag. Time & Date
Minimum magnitude displayed is 2.5.

Coastal Water Temperatures

Place Temperature

Stations

Nearby Weather Stations

Station Location Temp. Windchill Dew Point Humidity Wind Precip. Elev Updated Type